sensor_id;sensor_type;location;lat;lon;timestamp;P1;durP1;ratioP1;P2;durP2;ratioP2
28455;SDS011;15682;56.742;38.866;2023-04-16T00:00:51;55.6;;;15.4;;
28455;SDS011;15682;56.742;38.866;2023-04-16T00:02:51;25.2;;;7.5;;
28455;SDS011;15682;56.742;38.866;2023-04-16T00:04:51;50.2;;;14.6;;
28455;SDS011;15682;56.742;38.866;2023-04-16T00:06:51;68.2;;;16.6;;
28455;SDS011;15682;56.742;38.866;2023-04-16T00:08:51;20.9;;;5.5;;
28455;SDS011;15682;56.742;38.866;2023-04-16T00:10:51;20.3;;;5.6;;
28455;SDS011;15682;56.742;38.866;2023-04-16T00:12:51;28.2;;;6.2;;
28455;SDS011;15682;56.742;38.866;2023-04-16T00:14:51;15.2;;;4.7;;
28455;SDS011;15682;56.742;38.866;2023-04-16T00:16:51;14.9;;;4.3;;
28455;SDS011;15682;56.742;38.866;2023-04-16T00:18:51;19.1;;;4.8;;
28455;SDS011;15682;56.742;38.866;2023-04-16T00:20:51;16.2;;;4.7;;
28455;SDS011;15682;56.742;38.866;2023-04-16T00:22:50;17.3;;;4.7;;
28455;SDS011;15682;56.742;38.866;2023-04-16T00:24:50;22.7;;;5.0;;
28455;SDS011;15682;56.742;38.866;2023-04-16T00:26:50;14.9;;;4.9;;
28455;SDS011;15682;56.742;38.866;2023-04-16T00:28:50;19.6;;;4.4;;
28455;SDS011;15682;56.742;38.866;2023-04-16T00:30:50;16.3;;;4.2;;
28455;SDS011;15682;56.742;38.866;2023-04-16T00:32:50;22.4;;;4.3;;
28455;SDS011;15682;56.742;38.866;2023-04-16T00:34:50;24.3;;;4.4;;
28455;SDS011;15682;56.742;38.866;2023-04-16T00:36:50;13.4;;;4.0;;
28455;SDS011;15682;56.742;38.866;2023-04-16T00:38:50;17.4;;;4.0;;
28455;SDS011;15682;56.742;38.866;2023-04-16T00:40:50;12.0;;;3.8;;
28455;SDS011;15682;56.742;38.866;2023-04-16T00:42:50;12.4;;;4.1;;
28455;SDS011;15682;56.742;38.866;2023-04-16T00:44:50;9.5;;;3.8;;
28455;SDS011;15682;56.742;38.866;2023-04-16T00:46:50;10.2;;;4.0;;
28455;SDS011;15682;56.742;38.866;2023-04-16T00:48:50;15.5;;;3.9;;
28455;SDS011;15682;56.742;38.866;2023-04-16T00:50:50;13.6;;;4.3;;
28455;SDS011;15682;56.742;38.866;2023-04-16T00:52:49;12.0;;;4.2;;
28455;SDS011;15682;56.742;38.866;2023-04-16T00:54:49;11.8;;;4.3;;
28455;SDS011;15682;56.742;38.866;2023-04-16T00:56:50;9.8;;;4.3;;
28455;SDS011;15682;56.742;38.866;2023-04-16T00:58:49;15.4;;;4.4;;
28455;SDS011;15682;56.742;38.866;2023-04-16T01:00:50;10.5;;;4.2;;
28455;SDS011;15682;56.742;38.866;2023-04-16T01:02:49;14.1;;;4.3;;
28455;SDS011;15682;56.742;38.866;2023-04-16T01:04:49;14.5;;;4.1;;
28455;SDS011;15682;56.742;38.866;2023-04-16T01:06:49;11.5;;;3.4;;
28455;SDS011;15682;56.742;38.866;2023-04-16T01:08:49;11.2;;;3.6;;
28455;SDS011;15682;56.742;38.866;2023-04-16T01:10:49;14.3;;;4.0;;
28455;SDS011;15682;56.742;38.866;2023-04-16T01:12:49;19.4;;;4.1;;
28455;SDS011;15682;56.742;38.866;2023-04-16T01:14:49;13.5;;;4.3;;
28455;SDS011;15682;56.742;38.866;2023-04-16T01:16:49;17.4;;;4.2;;
28455;SDS011;15682;56.742;38.866;2023-04-16T01:18:49;11.1;;;4.1;;
28455;SDS011;15682;56.742;38.866;2023-04-16T01:20:48;16.0;;;3.9;;
28455;SDS011;15682;56.742;38.866;2023-04-16T01:22:48;12.7;;;4.0;;
28455;SDS011;15682;56.742;38.866;2023-04-16T01:24:48;10.9;;;4.3;;
28455;SDS011;15682;56.742;38.866;2023-04-16T01:26:48;11.4;;;3.8;;
28455;SDS011;15682;56.742;38.866;2023-04-16T01:28:48;9.2;;;3.5;;
28455;SDS011;15682;56.742;38.866;2023-04-16T01:30:48;13.3;;;3.4;;
28455;SDS011;15682;56.742;38.866;2023-04-16T01:32:48;22.5;;;4.3;;
28455;SDS011;15682;56.742;38.866;2023-04-16T01:34:48;12.5;;;3.2;;
28455;SDS011;15682;56.742;38.866;2023-04-16T01:36:48;9.9;;;3.6;;
28455;SDS011;15682;56.742;38.866;2023-04-16T01:38:48;13.3;;;3.7;;
28455;SDS011;15682;56.742;38.866;2023-04-16T01:40:48;9.4;;;3.6;;
28455;SDS011;15682;56.742;38.866;2023-04-16T01:42:48;12.8;;;3.7;;
28455;SDS011;15682;56.742;38.866;2023-04-16T01:44:48;16.1;;;3.6;;
28455;SDS011;15682;56.742;38.866;2023-04-16T01:46:48;16.3;;;4.2;;
28455;SDS011;15682;56.742;38.866;2023-04-16T01:48:48;15.0;;;3.9;;
28455;SDS011;15682;56.742;38.866;2023-04-16T01:50:47;13.7;;;4.1;;
28455;SDS011;15682;56.742;38.866;2023-04-16T01:52:47;25.1;;;4.0;;
28455;SDS011;15682;56.742;38.866;2023-04-16T01:54:47;15.0;;;4.4;;
28455;SDS011;15682;56.742;38.866;2023-04-16T01:56:47;15.0;;;3.9;;
28455;SDS011;15682;56.742;38.866;2023-04-16T01:58:47;19.7;;;3.9;;
28455;SDS011;15682;56.742;38.866;2023-04-16T02:00:47;19.3;;;3.9;;
28455;SDS011;15682;56.742;38.866;2023-04-16T02:02:47;15.0;;;3.5;;
28455;SDS011;15682;56.742;38.866;2023-04-16T02:04:47;11.5;;;3.8;;
28455;SDS011;15682;56.742;38.866;2023-04-16T02:06:47;11.8;;;3.9;;
28455;SDS011;15682;56.742;38.866;2023-04-16T02:08:47;16.9;;;4.3;;
28455;SDS011;15682;56.742;38.866;2023-04-16T02:10:47;20.4;;;4.3;;
28455;SDS011;15682;56.742;38.866;2023-04-16T02:12:47;19.1;;;3.8;;
28455;SDS011;15682;56.742;38.866;2023-04-16T02:14:47;17.5;;;4.4;;
28455;SDS011;15682;56.742;38.866;2023-04-16T02:16:47;22.3;;;4.5;;
28455;SDS011;15682;56.742;38.866;2023-04-16T02:18:46;17.0;;;5.0;;
28455;SDS011;15682;56.742;38.866;2023-04-16T02:20:46;15.0;;;4.8;;
28455;SDS011;15682;56.742;38.866;2023-04-16T02:22:46;16.6;;;4.3;;
28455;SDS011;15682;56.742;38.866;2023-04-16T02:24:46;21.4;;;5.2;;
28455;SDS011;15682;56.742;38.866;2023-04-16T02:26:46;23.9;;;5.2;;
28455;SDS011;15682;56.742;38.866;2023-04-16T02:28:46;18.6;;;4.7;;
28455;SDS011;15682;56.742;38.866;2023-04-16T02:30:46;16.2;;;4.6;;
28455;SDS011;15682;56.742;38.866;2023-04-16T02:32:46;21.6;;;5.1;;
28455;SDS011;15682;56.742;38.866;2023-04-16T02:34:46;16.6;;;4.7;;
28455;SDS011;15682;56.742;38.866;2023-04-16T02:36:46;11.8;;;4.0;;
28455;SDS011;15682;56.742;38.866;2023-04-16T02:38:46;11.1;;;3.6;;
28455;SDS011;15682;56.742;38.866;2023-04-16T02:40:46;12.3;;;3.9;;
28455;SDS011;15682;56.742;38.866;2023-04-16T02:42:46;17.5;;;4.3;;
28455;SDS011;15682;56.742;38.866;2023-04-16T02:44:45;17.8;;;4.2;;
28455;SDS011;15682;56.742;38.866;2023-04-16T02:46:45;13.5;;;4.4;;
28455;SDS011;15682;56.742;38.866;2023-04-16T02:48:45;19.5;;;4.8;;
28455;SDS011;15682;56.742;38.866;2023-04-16T02:50:45;20.8;;;4.5;;
28455;SDS011;15682;56.742;38.866;2023-04-16T02:52:45;26.5;;;4.8;;
28455;SDS011;15682;56.742;38.866;2023-04-16T02:54:45;15.8;;;4.0;;
28455;SDS011;15682;56.742;38.866;2023-04-16T02:56:45;23.1;;;5.0;;
28455;SDS011;15682;56.742;38.866;2023-04-16T02:58:45;18.7;;;4.0;;
28455;SDS011;15682;56.742;38.866;2023-04-16T03:00:45;17.2;;;3.9;;
28455;SDS011;15682;56.742;38.866;2023-04-16T03:02:45;18.6;;;4.2;;
28455;SDS011;15682;56.742;38.866;2023-04-16T03:04:45;26.4;;;4.1;;
28455;SDS011;15682;56.742;38.866;2023-04-16T03:06:45;21.8;;;4.3;;
28455;SDS011;15682;56.742;38.866;2023-04-16T03:08:45;17.1;;;4.0;;
28455;SDS011;15682;56.742;38.866;2023-04-16T03:10:45;20.1;;;4.0;;
28455;SDS011;15682;56.742;38.866;2023-04-16T03:12:45;15.9;;;3.9;;
28455;SDS011;15682;56.742;38.866;2023-04-16T03:14:45;15.9;;;3.5;;
28455;SDS011;15682;56.742;38.866;2023-04-16T03:16:44;8.9;;;3.9;;
28455;SDS011;15682;56.742;38.866;2023-04-16T03:18:44;12.1;;;3.5;;
28455;SDS011;15682;56.742;38.866;2023-04-16T03:20:44;14.5;;;4.0;;
28455;SDS011;15682;56.742;38.866;2023-04-16T03:22:44;15.3;;;3.7;;
28455;SDS011;15682;56.742;38.866;2023-04-16T03:24:44;19.3;;;4.2;;
28455;SDS011;15682;56.742;38.866;2023-04-16T03:26:44;16.2;;;4.4;;
28455;SDS011;15682;56.742;38.866;2023-04-16T03:28:44;19.1;;;4.3;;
28455;SDS011;15682;56.742;38.866;2023-04-16T03:30:48;24.1;;;4.2;;
28455;SDS011;15682;56.742;38.866;2023-04-16T03:32:44;21.3;;;3.7;;
28455;SDS011;15682;56.742;38.866;2023-04-16T03:34:44;25.1;;;4.4;;
28455;SDS011;15682;56.742;38.866;2023-04-16T03:36:44;26.5;;;4.7;;
28455;SDS011;15682;56.742;38.866;2023-04-16T03:38:44;23.1;;;4.0;;
28455;SDS011;15682;56.742;38.866;2023-04-16T03:40:44;21.6;;;4.1;;
28455;SDS011;15682;56.742;38.866;2023-04-16T03:42:44;21.4;;;4.5;;
28455;SDS011;15682;56.742;38.866;2023-04-16T03:44:44;29.5;;;5.7;;
28455;SDS011;15682;56.742;38.866;2023-04-16T03:46:44;18.3;;;4.1;;
28455;SDS011;15682;56.742;38.866;2023-04-16T03:48:44;12.5;;;3.9;;
28455;SDS011;15682;56.742;38.866;2023-04-16T03:50:44;17.0;;;4.4;;
28455;SDS011;15682;56.742;38.866;2023-04-16T03:52:44;15.9;;;4.3;;
28455;SDS011;15682;56.742;38.866;2023-04-16T03:54:44;13.0;;;4.8;;
28455;SDS011;15682;56.742;38.866;2023-04-16T03:56:44;19.7;;;4.8;;
28455;SDS011;15682;56.742;38.866;2023-04-16T03:58:44;22.5;;;4.9;;
28455;SDS011;15682;56.742;38.866;2023-04-16T04:00:44;19.5;;;4.4;;
28455;SDS011;15682;56.742;38.866;2023-04-16T04:02:44;19.6;;;4.7;;
28455;SDS011;15682;56.742;38.866;2023-04-16T04:04:44;12.9;;;4.7;;
28455;SDS011;15682;56.742;38.866;2023-04-16T04:06:45;25.1;;;4.9;;
28455;SDS011;15682;56.742;38.866;2023-04-16T04:08:45;12.0;;;4.3;;
28455;SDS011;15682;56.742;38.866;2023-04-16T04:10:45;35.9;;;5.1;;
28455;SDS011;15682;56.742;38.866;2023-04-16T04:12:45;36.9;;;4.6;;
28455;SDS011;15682;56.742;38.866;2023-04-16T04:14:45;22.7;;;4.4;;
28455;SDS011;15682;56.742;38.866;2023-04-16T04:16:45;19.7;;;3.8;;
28455;SDS011;15682;56.742;38.866;2023-04-16T04:18:45;14.5;;;3.5;;
28455;SDS011;15682;56.742;38.866;2023-04-16T04:20:45;16.9;;;3.9;;
28455;SDS011;15682;56.742;38.866;2023-04-16T04:22:46;12.6;;;3.3;;
28455;SDS011;15682;56.742;38.866;2023-04-16T04:24:46;16.2;;;3.7;;
28455;SDS011;15682;56.742;38.866;2023-04-16T04:26:46;15.3;;;3.9;;
28455;SDS011;15682;56.742;38.866;2023-04-16T04:28:46;18.6;;;3.9;;
28455;SDS011;15682;56.742;38.866;2023-04-16T04:30:46;14.3;;;3.7;;
28455;SDS011;15682;56.742;38.866;2023-04-16T04:32:46;13.4;;;3.8;;
28455;SDS011;15682;56.742;38.866;2023-04-16T04:34:46;16.7;;;4.1;;
28455;SDS011;15682;56.742;38.866;2023-04-16T04:36:47;10.9;;;3.3;;
28455;SDS011;15682;56.742;38.866;2023-04-16T04:38:47;20.0;;;3.9;;
28455;SDS011;15682;56.742;38.866;2023-04-16T04:40:47;12.4;;;3.5;;
28455;SDS011;15682;56.742;38.866;2023-04-16T04:42:47;14.0;;;3.2;;
28455;SDS011;15682;56.742;38.866;2023-04-16T04:44:47;24.4;;;3.4;;
28455;SDS011;15682;56.742;38.866;2023-04-16T04:46:47;11.1;;;3.0;;
28455;SDS011;15682;56.742;38.866;2023-04-16T04:48:47;7.5;;;2.6;;
28455;SDS011;15682;56.742;38.866;2023-04-16T04:50:48;10.2;;;3.2;;
28455;SDS011;15682;56.742;38.866;2023-04-16T04:52:48;10.3;;;3.0;;
28455;SDS011;15682;56.742;38.866;2023-04-16T04:54:48;15.0;;;3.2;;
28455;SDS011;15682;56.742;38.866;2023-04-16T04:56:48;12.6;;;2.8;;
28455;SDS011;15682;56.742;38.866;2023-04-16T04:58:48;12.2;;;2.8;;
28455;SDS011;15682;56.742;38.866;2023-04-16T05:00:48;8.4;;;3.0;;
28455;SDS011;15682;56.742;38.866;2023-04-16T05:02:48;8.4;;;2.6;;
28455;SDS011;15682;56.742;38.866;2023-04-16T05:04:48;5.9;;;2.4;;
28455;SDS011;15682;56.742;38.866;2023-04-16T05:06:49;6.4;;;2.7;;
28455;SDS011;15682;56.742;38.866;2023-04-16T05:08:49;13.8;;;2.7;;
28455;SDS011;15682;56.742;38.866;2023-04-16T05:10:49;8.7;;;2.9;;
28455;SDS011;15682;56.742;38.866;2023-04-16T05:12:49;10.1;;;3.5;;
28455;SDS011;15682;56.742;38.866;2023-04-16T05:14:49;15.7;;;4.8;;
28455;SDS011;15682;56.742;38.866;2023-04-16T05:16:50;18.2;;;5.6;;
28455;SDS011;15682;56.742;38.866;2023-04-16T05:18:49;23.5;;;4.6;;
28455;SDS011;15682;56.742;38.866;2023-04-16T05:20:50;20.1;;;4.8;;
28455;SDS011;15682;56.742;38.866;2023-04-16T05:22:50;14.3;;;4.1;;
28455;SDS011;15682;56.742;38.866;2023-04-16T05:24:50;14.5;;;4.0;;
28455;SDS011;15682;56.742;38.866;2023-04-16T05:26:50;23.6;;;4.6;;
28455;SDS011;15682;56.742;38.866;2023-04-16T05:28:50;15.5;;;4.0;;
28455;SDS011;15682;56.742;38.866;2023-04-16T05:30:51;16.6;;;3.9;;
28455;SDS011;15682;56.742;38.866;2023-04-16T05:32:51;14.4;;;4.2;;
28455;SDS011;15682;56.742;38.866;2023-04-16T05:34:51;17.0;;;4.0;;
28455;SDS011;15682;56.742;38.866;2023-04-16T05:36:51;18.9;;;3.8;;
28455;SDS011;15682;56.742;38.866;2023-04-16T05:38:52;14.6;;;3.1;;
28455;SDS011;15682;56.742;38.866;2023-04-16T05:40:52;15.4;;;2.9;;
28455;SDS011;15682;56.742;38.866;2023-04-16T05:42:52;11.7;;;2.8;;
28455;SDS011;15682;56.742;38.866;2023-04-16T05:44:52;6.6;;;2.5;;
28455;SDS011;15682;56.742;38.866;2023-04-16T05:46:53;15.2;;;2.9;;
28455;SDS011;15682;56.742;38.866;2023-04-16T05:48:53;7.9;;;2.5;;
28455;SDS011;15682;56.742;38.866;2023-04-16T05:50:53;8.8;;;2.5;;
28455;SDS011;15682;56.742;38.866;2023-04-16T05:52:54;6.8;;;2.5;;
28455;SDS011;15682;56.742;38.866;2023-04-16T05:54:54;9.9;;;2.8;;
28455;SDS011;15682;56.742;38.866;2023-04-16T05:56:54;6.9;;;2.3;;
28455;SDS011;15682;56.742;38.866;2023-04-16T05:58:54;6.9;;;2.2;;
28455;SDS011;15682;56.742;38.866;2023-04-16T06:00:55;10.0;;;2.5;;
28455;SDS011;15682;56.742;38.866;2023-04-16T06:02:55;8.1;;;2.6;;
28455;SDS011;15682;56.742;38.866;2023-04-16T06:04:55;10.8;;;2.4;;
28455;SDS011;15682;56.742;38.866;2023-04-16T06:06:56;11.0;;;2.2;;
28455;SDS011;15682;56.742;38.866;2023-04-16T06:08:56;8.3;;;2.4;;
28455;SDS011;15682;56.742;38.866;2023-04-16T06:10:56;7.2;;;2.0;;
28455;SDS011;15682;56.742;38.866;2023-04-16T06:12:57;6.2;;;2.0;;
28455;SDS011;15682;56.742;38.866;2023-04-16T06:14:57;5.1;;;2.0;;
28455;SDS011;15682;56.742;38.866;2023-04-16T06:16:57;11.9;;;2.1;;
28455;SDS011;15682;56.742;38.866;2023-04-16T06:18:58;4.4;;;1.7;;
28455;SDS011;15682;56.742;38.866;2023-04-16T06:20:58;9.2;;;2.3;;
28455;SDS011;15682;56.742;38.866;2023-04-16T06:22:58;6.8;;;1.9;;
28455;SDS011;15682;56.742;38.866;2023-04-16T06:24:59;5.5;;;1.6;;
28455;SDS011;15682;56.742;38.866;2023-04-16T06:26:59;6.5;;;1.8;;
28455;SDS011;15682;56.742;38.866;2023-04-16T06:28:59;4.7;;;1.7;;
28455;SDS011;15682;56.742;38.866;2023-04-16T06:31:00;6.6;;;1.9;;
28455;SDS011;15682;56.742;38.866;2023-04-16T06:33:00;10.1;;;2.1;;
28455;SDS011;15682;56.742;38.866;2023-04-16T06:35:00;10.6;;;1.8;;
28455;SDS011;15682;56.742;38.866;2023-04-16T06:37:01;4.8;;;1.5;;
28455;SDS011;15682;56.742;38.866;2023-04-16T06:39:01;11.7;;;1.8;;
28455;SDS011;15682;56.742;38.866;2023-04-16T06:41:01;4.5;;;1.9;;
28455;SDS011;15682;56.742;38.866;2023-04-16T06:43:02;16.3;;;2.1;;
28455;SDS011;15682;56.742;38.866;2023-04-16T06:45:02;7.3;;;2.1;;
28455;SDS011;15682;56.742;38.866;2023-04-16T06:47:02;25.6;;;2.7;;
28455;SDS011;15682;56.742;38.866;2023-04-16T06:49:03;9.0;;;1.9;;
28455;SDS011;15682;56.742;38.866;2023-04-16T06:51:03;25.3;;;2.7;;
28455;SDS011;15682;56.742;38.866;2023-04-16T06:53:03;13.7;;;2.3;;
28455;SDS011;15682;56.742;38.866;2023-04-16T06:55:04;9.0;;;2.1;;
28455;SDS011;15682;56.742;38.866;2023-04-16T06:57:04;17.5;;;2.3;;
28455;SDS011;15682;56.742;38.866;2023-04-16T06:59:04;8.1;;;2.2;;
28455;SDS011;15682;56.742;38.866;2023-04-16T07:01:05;4.2;;;1.8;;
28455;SDS011;15682;56.742;38.866;2023-04-16T07:03:05;4.4;;;2.0;;
28455;SDS011;15682;56.742;38.866;2023-04-16T07:05:05;6.9;;;1.9;;
28455;SDS011;15682;56.742;38.866;2023-04-16T07:07:05;5.0;;;2.1;;
28455;SDS011;15682;56.742;38.866;2023-04-16T07:09:06;6.9;;;1.8;;
28455;SDS011;15682;56.742;38.866;2023-04-16T07:11:06;6.7;;;2.3;;
28455;SDS011;15682;56.742;38.866;2023-04-16T07:13:06;9.5;;;2.0;;
28455;SDS011;15682;56.742;38.866;2023-04-16T07:15:07;7.4;;;2.2;;
28455;SDS011;15682;56.742;38.866;2023-04-16T07:17:07;13.0;;;2.3;;
28455;SDS011;15682;56.742;38.866;2023-04-16T07:19:07;17.4;;;2.5;;
28455;SDS011;15682;56.742;38.866;2023-04-16T07:21:07;6.9;;;1.9;;
28455;SDS011;15682;56.742;38.866;2023-04-16T07:23:08;4.9;;;1.7;;
28455;SDS011;15682;56.742;38.866;2023-04-16T07:25:08;6.6;;;1.8;;
28455;SDS011;15682;56.742;38.866;2023-04-16T07:27:08;9.7;;;2.2;;
28455;SDS011;15682;56.742;38.866;2023-04-16T07:29:08;8.5;;;2.0;;
28455;SDS011;15682;56.742;38.866;2023-04-16T07:31:09;7.5;;;1.9;;
28455;SDS011;15682;56.742;38.866;2023-04-16T07:33:09;8.3;;;1.8;;
28455;SDS011;15682;56.742;38.866;2023-04-16T07:35:09;5.8;;;1.6;;
28455;SDS011;15682;56.742;38.866;2023-04-16T07:37:10;5.9;;;2.1;;
28455;SDS011;15682;56.742;38.866;2023-04-16T07:39:09;6.7;;;1.9;;
28455;SDS011;15682;56.742;38.866;2023-04-16T07:41:10;4.5;;;1.9;;
28455;SDS011;15682;56.742;38.866;2023-04-16T07:43:10;9.1;;;1.9;;
28455;SDS011;15682;56.742;38.866;2023-04-16T07:45:10;4.5;;;1.8;;
28455;SDS011;15682;56.742;38.866;2023-04-16T07:47:10;26.2;;;2.8;;
28455;SDS011;15682;56.742;38.866;2023-04-16T07:49:11;9.1;;;2.0;;
28455;SDS011;15682;56.742;38.866;2023-04-16T07:51:11;6.0;;;1.8;;
28455;SDS011;15682;56.742;38.866;2023-04-16T07:53:11;5.7;;;1.7;;
28455;SDS011;15682;56.742;38.866;2023-04-16T07:55:11;7.1;;;1.8;;
28455;SDS011;15682;56.742;38.866;2023-04-16T07:57:11;5.8;;;2.0;;
28455;SDS011;15682;56.742;38.866;2023-04-16T07:59:12;8.3;;;2.1;;
28455;SDS011;15682;56.742;38.866;2023-04-16T08:01:12;8.2;;;1.8;;
28455;SDS011;15682;56.742;38.866;2023-04-16T08:03:12;7.0;;;2.1;;
28455;SDS011;15682;56.742;38.866;2023-04-16T08:05:12;5.3;;;1.8;;
28455;SDS011;15682;56.742;38.866;2023-04-16T08:07:12;4.9;;;1.9;;
28455;SDS011;15682;56.742;38.866;2023-04-16T08:09:13;7.7;;;2.2;;
28455;SDS011;15682;56.742;38.866;2023-04-16T08:11:13;9.6;;;1.9;;
28455;SDS011;15682;56.742;38.866;2023-04-16T08:13:13;9.9;;;3.0;;
28455;SDS011;15682;56.742;38.866;2023-04-16T08:15:13;11.4;;;2.1;;
28455;SDS011;15682;56.742;38.866;2023-04-16T08:17:14;11.6;;;2.0;;
28455;SDS011;15682;56.742;38.866;2023-04-16T08:19:14;6.0;;;1.8;;
28455;SDS011;15682;56.742;38.866;2023-04-16T08:21:14;4.8;;;2.0;;
28455;SDS011;15682;56.742;38.866;2023-04-16T08:23:14;6.8;;;1.9;;
28455;SDS011;15682;56.742;38.866;2023-04-16T08:25:14;7.7;;;2.1;;
28455;SDS011;15682;56.742;38.866;2023-04-16T08:27:15;6.1;;;1.9;;
28455;SDS011;15682;56.742;38.866;2023-04-16T08:29:15;13.7;;;2.5;;
28455;SDS011;15682;56.742;38.866;2023-04-16T08:31:15;4.9;;;1.8;;
28455;SDS011;15682;56.742;38.866;2023-04-16T08:33:15;12.9;;;2.3;;
28455;SDS011;15682;56.742;38.866;2023-04-16T08:35:15;8.3;;;3.0;;
28455;SDS011;15682;56.742;38.866;2023-04-16T08:37:15;18.3;;;2.2;;
28455;SDS011;15682;56.742;38.866;2023-04-16T08:39:16;6.8;;;1.9;;
28455;SDS011;15682;56.742;38.866;2023-04-16T08:41:16;9.3;;;2.1;;
28455;SDS011;15682;56.742;38.866;2023-04-16T08:43:16;8.4;;;2.0;;
28455;SDS011;15682;56.742;38.866;2023-04-16T08:45:16;8.0;;;2.0;;
28455;SDS011;15682;56.742;38.866;2023-04-16T08:47:17;7.2;;;2.1;;
28455;SDS011;15682;56.742;38.866;2023-04-16T08:49:17;5.7;;;2.0;;
28455;SDS011;15682;56.742;38.866;2023-04-16T08:51:17;5.9;;;1.9;;
28455;SDS011;15682;56.742;38.866;2023-04-16T08:53:17;5.1;;;1.9;;
28455;SDS011;15682;56.742;38.866;2023-04-16T08:55:18;6.5;;;1.9;;
28455;SDS011;15682;56.742;38.866;2023-04-16T08:57:18;8.9;;;1.8;;
28455;SDS011;15682;56.742;38.866;2023-04-16T08:59:18;6.3;;;1.8;;
28455;SDS011;15682;56.742;38.866;2023-04-16T09:01:18;6.5;;;1.8;;
28455;SDS011;15682;56.742;38.866;2023-04-16T09:03:18;12.0;;;2.0;;
28455;SDS011;15682;56.742;38.866;2023-04-16T09:05:18;7.8;;;2.1;;
28455;SDS011;15682;56.742;38.866;2023-04-16T09:07:19;5.8;;;1.8;;
28455;SDS011;15682;56.742;38.866;2023-04-16T09:09:19;7.8;;;1.7;;
28455;SDS011;15682;56.742;38.866;2023-04-16T09:11:19;8.7;;;1.8;;
28455;SDS011;15682;56.742;38.866;2023-04-16T09:13:19;4.9;;;1.7;;
28455;SDS011;15682;56.742;38.866;2023-04-16T09:15:19;7.1;;;2.3;;
28455;SDS011;15682;56.742;38.866;2023-04-16T09:17:20;7.9;;;2.0;;
28455;SDS011;15682;56.742;38.866;2023-04-16T09:19:20;7.4;;;2.2;;
28455;SDS011;15682;56.742;38.866;2023-04-16T09:21:20;7.1;;;2.2;;
28455;SDS011;15682;56.742;38.866;2023-04-16T09:23:20;6.6;;;1.8;;
28455;SDS011;15682;56.742;38.866;2023-04-16T09:25:21;9.9;;;2.0;;
28455;SDS011;15682;56.742;38.866;2023-04-16T09:27:21;6.4;;;2.0;;
28455;SDS011;15682;56.742;38.866;2023-04-16T09:29:33;10.6;;;2.1;;
28455;SDS011;15682;56.742;38.866;2023-04-16T09:31:21;8.0;;;2.1;;
28455;SDS011;15682;56.742;38.866;2023-04-16T09:33:21;9.3;;;2.2;;
28455;SDS011;15682;56.742;38.866;2023-04-16T09:35:22;8.5;;;2.4;;
28455;SDS011;15682;56.742;38.866;2023-04-16T09:37:22;7.2;;;2.1;;
28455;SDS011;15682;56.742;38.866;2023-04-16T09:39:22;12.0;;;2.8;;
28455;SDS011;15682;56.742;38.866;2023-04-16T09:41:23;21.0;;;2.9;;
28455;SDS011;15682;56.742;38.866;2023-04-16T09:43:25;10.3;;;1.9;;
28455;SDS011;15682;56.742;38.866;2023-04-16T09:45:23;40.6;;;3.7;;
28455;SDS011;15682;56.742;38.866;2023-04-16T09:47:24;27.8;;;2.8;;
28455;SDS011;15682;56.742;38.866;2023-04-16T09:49:23;8.3;;;1.9;;
28455;SDS011;15682;56.742;38.866;2023-04-16T09:51:24;6.6;;;2.7;;
28455;SDS011;15682;56.742;38.866;2023-04-16T09:53:24;12.5;;;2.0;;
28455;SDS011;15682;56.742;38.866;2023-04-16T09:55:26;9.6;;;1.9;;
28455;SDS011;15682;56.742;38.866;2023-04-16T09:57:24;8.0;;;2.1;;
28455;SDS011;15682;56.742;38.866;2023-04-16T09:59:24;9.0;;;2.0;;
28455;SDS011;15682;56.742;38.866;2023-04-16T10:01:25;14.6;;;2.3;;
28455;SDS011;15682;56.742;38.866;2023-04-16T10:03:28;4.2;;;1.8;;
28455;SDS011;15682;56.742;38.866;2023-04-16T10:05:25;3.3;;;1.8;;
28455;SDS011;15682;56.742;38.866;2023-04-16T10:07:26;7.9;;;2.0;;
28455;SDS011;15682;56.742;38.866;2023-04-16T10:09:25;10.0;;;2.2;;
28455;SDS011;15682;56.742;38.866;2023-04-16T10:11:26;8.5;;;2.1;;
28455;SDS011;15682;56.742;38.866;2023-04-16T10:13:26;12.3;;;2.4;;
28455;SDS011;15682;56.742;38.866;2023-04-16T10:15:26;12.3;;;2.2;;
28455;SDS011;15682;56.742;38.866;2023-04-16T10:17:26;11.4;;;2.2;;
28455;SDS011;15682;56.742;38.866;2023-04-16T10:19:27;7.7;;;2.1;;
28455;SDS011;15682;56.742;38.866;2023-04-16T10:21:27;6.6;;;1.9;;
28455;SDS011;15682;56.742;38.866;2023-04-16T10:23:27;12.4;;;2.2;;
28455;SDS011;15682;56.742;38.866;2023-04-16T10:25:27;23.8;;;2.9;;
28455;SDS011;15682;56.742;38.866;2023-04-16T10:27:27;23.3;;;2.6;;
28455;SDS011;15682;56.742;38.866;2023-04-16T10:29:28;6.7;;;1.9;;
28455;SDS011;15682;56.742;38.866;2023-04-16T10:31:28;10.6;;;2.5;;
28455;SDS011;15682;56.742;38.866;2023-04-16T10:33:29;8.5;;;2.6;;
28455;SDS011;15682;56.742;38.866;2023-04-16T10:35:28;7.8;;;2.8;;
28455;SDS011;15682;56.742;38.866;2023-04-16T10:37:29;7.6;;;2.2;;
28455;SDS011;15682;56.742;38.866;2023-04-16T10:39:29;7.6;;;2.5;;
28455;SDS011;15682;56.742;38.866;2023-04-16T10:41:31;9.1;;;2.9;;
28455;SDS011;15682;56.742;38.866;2023-04-16T10:43:29;5.3;;;2.3;;
28455;SDS011;15682;56.742;38.866;2023-04-16T10:45:29;8.6;;;2.2;;
28455;SDS011;15682;56.742;38.866;2023-04-16T10:47:30;8.3;;;3.0;;
28455;SDS011;15682;56.742;38.866;2023-04-16T10:49:30;6.2;;;2.7;;
28455;SDS011;15682;56.742;38.866;2023-04-16T10:51:31;26.4;;;3.8;;
28455;SDS011;15682;56.742;38.866;2023-04-16T10:53:30;8.8;;;3.1;;
28455;SDS011;15682;56.742;38.866;2023-04-16T10:55:30;11.1;;;2.8;;
28455;SDS011;15682;56.742;38.866;2023-04-16T10:57:31;10.2;;;3.1;;
28455;SDS011;15682;56.742;38.866;2023-04-16T10:59:31;7.1;;;3.1;;
28455;SDS011;15682;56.742;38.866;2023-04-16T11:01:32;17.2;;;2.6;;
28455;SDS011;15682;56.742;38.866;2023-04-16T11:03:31;7.5;;;2.4;;
28455;SDS011;15682;56.742;38.866;2023-04-16T11:05:43;6.4;;;2.3;;
28455;SDS011;15682;56.742;38.866;2023-04-16T11:07:32;17.1;;;6.7;;
28455;SDS011;15682;56.742;38.866;2023-04-16T11:11:35;6.4;;;2.6;;
28455;SDS011;15682;56.742;38.866;2023-04-16T11:13:33;4.3;;;2.0;;
28455;SDS011;15682;56.742;38.866;2023-04-16T11:15:33;6.2;;;2.2;;
28455;SDS011;15682;56.742;38.866;2023-04-16T11:17:36;8.3;;;2.1;;
28455;SDS011;15682;56.742;38.866;2023-04-16T11:19:34;13.2;;;2.4;;
28455;SDS011;15682;56.742;38.866;2023-04-16T11:21:33;7.0;;;1.9;;
28455;SDS011;15682;56.742;38.866;2023-04-16T11:23:44;21.5;;;2.5;;
28455;SDS011;15682;56.742;38.866;2023-04-16T11:25:34;7.0;;;2.8;;
28455;SDS011;15682;56.742;38.866;2023-04-16T11:27:34;8.4;;;2.7;;
28455;SDS011;15682;56.742;38.866;2023-04-16T11:29:34;9.9;;;3.8;;
28455;SDS011;15682;56.742;38.866;2023-04-16T11:31:34;11.3;;;2.4;;
28455;SDS011;15682;56.742;38.866;2023-04-16T11:33:34;8.9;;;2.4;;
28455;SDS011;15682;56.742;38.866;2023-04-16T11:35:35;20.3;;;2.7;;
28455;SDS011;15682;56.742;38.866;2023-04-16T11:37:36;8.5;;;2.1;;
28455;SDS011;15682;56.742;38.866;2023-04-16T11:39:46;4.1;;;2.2;;
28455;SDS011;15682;56.742;38.866;2023-04-16T11:41:41;5.5;;;2.5;;
28455;SDS011;15682;56.742;38.866;2023-04-16T11:43:35;8.7;;;2.7;;
28455;SDS011;15682;56.742;38.866;2023-04-16T11:45:36;6.0;;;2.6;;
28455;SDS011;15682;56.742;38.866;2023-04-16T11:47:41;19.9;;;3.2;;
28455;SDS011;15682;56.742;38.866;2023-04-16T11:49:36;11.7;;;2.8;;
28455;SDS011;15682;56.742;38.866;2023-04-16T11:51:39;21.5;;;3.2;;
28455;SDS011;15682;56.742;38.866;2023-04-16T11:53:43;13.6;;;2.8;;
28455;SDS011;15682;56.742;38.866;2023-04-16T11:55:41;12.3;;;2.5;;
28455;SDS011;15682;56.742;38.866;2023-04-16T11:57:37;8.0;;;2.9;;
28455;SDS011;15682;56.742;38.866;2023-04-16T11:59:44;16.9;;;4.4;;
28455;SDS011;15682;56.742;38.866;2023-04-16T12:01:38;10.6;;;3.5;;
28455;SDS011;15682;56.742;38.866;2023-04-16T12:03:38;16.0;;;3.3;;
28455;SDS011;15682;56.742;38.866;2023-04-16T12:05:38;17.0;;;6.0;;
28455;SDS011;15682;56.742;38.866;2023-04-16T12:07:45;10.0;;;4.6;;
28455;SDS011;15682;56.742;38.866;2023-04-16T12:09:38;27.0;;;3.3;;